createdAt,value
2022-12-16T00:01:23.034Z,21.65
2022-12-16T00:03:56.806Z,22.00
2022-12-16T00:06:27.283Z,21.17
2022-12-16T00:08:53.937Z,20.17
2022-12-16T00:11:21.850Z,19.52
2022-12-16T00:13:48.606Z,21.02
2022-12-16T00:16:19.979Z,18.40
2022-12-16T00:18:47.062Z,20.52
2022-12-16T00:21:14.621Z,19.70
2022-12-16T00:23:44.213Z,19.85
2022-12-16T00:26:12.202Z,19.73
2022-12-16T00:28:39.842Z,18.95
2022-12-16T00:31:08.805Z,21.10
2022-12-16T00:33:36.152Z,21.02
2022-12-16T00:36:07.928Z,18.83
2022-12-16T00:38:34.982Z,18.92
2022-12-16T00:41:03.827Z,19.20
2022-12-16T00:43:31.108Z,17.77
2022-12-16T00:45:58.181Z,19.45
2022-12-16T00:48:27.312Z,19.38
2022-12-16T00:50:55.668Z,17.85
2022-12-16T00:53:24.379Z,18.75
2022-12-16T00:55:52.502Z,19.35
2022-12-16T00:58:20.382Z,18.33
2022-12-16T01:00:47.128Z,18.88
2022-12-16T01:03:19.432Z,18.42
2022-12-16T01:05:48.307Z,18.02
2022-12-16T01:08:17.522Z,18.95
2022-12-16T01:10:53.280Z,19.95
2022-12-16T01:13:24.320Z,17.10
2022-12-16T01:15:53.919Z,19.38
2022-12-16T01:18:20.827Z,19.38
2022-12-16T01:20:47.556Z,20.05
2022-12-16T01:23:14.224Z,18.10
2022-12-16T01:25:40.951Z,18.35
2022-12-16T01:28:10.455Z,18.85
2022-12-16T01:30:41.595Z,18.85
2022-12-16T01:33:09.189Z,18.65
2022-12-16T01:35:54.963Z,18.88
2022-12-16T01:38:22.976Z,18.30
2022-12-16T01:40:52.028Z,18.80
2022-12-16T01:43:25.428Z,17.13
2022-12-16T01:45:55.025Z,17.65
2022-12-16T01:48:43.652Z,17.75
2022-12-16T01:51:33.046Z,19.88
2022-12-16T01:54:08.807Z,17.90
2022-12-16T01:56:41.864Z,18.00
2022-12-16T01:59:09.070Z,17.50
2022-12-16T02:01:35.975Z,18.13
2022-12-16T02:04:04.169Z,18.95
2022-12-16T02:06:33.086Z,19.08
2022-12-16T02:09:02.944Z,19.15
2022-12-16T02:11:57.433Z,18.40
2022-12-16T02:14:52.263Z,17.10
2022-12-16T02:17:41.155Z,18.30
2022-12-16T02:20:28.969Z,17.48
2022-12-16T02:23:17.925Z,18.00
2022-12-16T02:25:50.370Z,18.13
2022-12-16T02:28:45.325Z,17.98
2022-12-16T02:31:27.261Z,18.05
2022-12-16T02:34:25.324Z,17.80
2022-12-16T02:37:02.382Z,16.27
2022-12-16T02:39:42.311Z,17.65
2022-12-16T02:42:32.009Z,18.23
2022-12-16T02:45:13.910Z,16.65
2022-12-16T02:47:40.739Z,17.25
2022-12-16T02:50:28.764Z,16.45
2022-12-16T02:52:57.954Z,15.55
2022-12-16T02:55:35.778Z,17.33
2022-12-16T02:58:21.009Z,17.27
2022-12-16T03:01:06.258Z,17.42
2022-12-16T03:03:47.652Z,17.13
2022-12-16T03:06:16.905Z,16.90
2022-12-16T03:08:47.546Z,15.80
2022-12-16T03:11:14.600Z,15.40
2022-12-16T03:13:50.014Z,16.23
2022-12-16T03:16:21.260Z,16.95
2022-12-16T03:18:52.650Z,17.38
2022-12-16T03:21:26.952Z,17.33
2022-12-16T03:23:58.543Z,15.95
2022-12-16T03:26:34.475Z,14.77
2022-12-16T03:29:13.041Z,16.17
2022-12-16T03:32:03.185Z,16.15
2022-12-16T03:37:09.914Z,14.27
2022-12-16T03:39:42.381Z,15.95
2022-12-16T03:42:10.170Z,15.45
2022-12-16T03:44:42.237Z,15.52
2022-12-16T03:47:19.769Z,15.23
2022-12-16T03:49:48.402Z,15.90
2022-12-16T03:52:19.716Z,16.27
2022-12-16T03:54:46.510Z,15.70
2022-12-16T03:57:15.643Z,14.80
2022-12-16T03:59:45.832Z,17.10
2022-12-16T04:02:12.709Z,15.27
2022-12-16T04:04:39.504Z,17.83
2022-12-16T04:07:26.457Z,14.88
2022-12-16T04:09:53.198Z,14.88
2022-12-16T04:12:39.022Z,16.42
2022-12-16T04:15:25.471Z,15.25
2022-12-16T04:18:18.477Z,16.63
2022-12-16T04:21:07.446Z,15.77
2022-12-16T04:24:02.628Z,15.77
2022-12-16T04:26:29.322Z,14.48
2022-12-16T04:28:55.997Z,14.60
2022-12-16T04:31:25.139Z,14.90
2022-12-16T04:34:23.434Z,14.88
2022-12-16T04:37:08.742Z,15.45
2022-12-16T04:39:54.091Z,15.70
2022-12-16T04:42:39.512Z,15.20
2022-12-16T04:45:24.935Z,14.00
2022-12-16T04:48:12.453Z,15.32
2022-12-16T04:50:57.888Z,13.02
2022-12-16T04:53:44.455Z,15.48
2022-12-16T04:56:31.806Z,14.55
2022-12-16T04:59:19.393Z,14.07
2022-12-16T05:02:04.819Z,14.10
2022-12-16T05:04:50.059Z,15.07
2022-12-16T05:07:38.388Z,14.52
2022-12-16T05:10:24.746Z,14.52
2022-12-16T05:13:13.028Z,14.57
2022-12-16T05:15:58.558Z,13.40
2022-12-16T05:18:44.368Z,14.88
2022-12-16T05:21:29.783Z,14.70
2022-12-16T05:24:17.259Z,13.40
2022-12-16T05:27:02.553Z,13.63
2022-12-16T05:29:48.052Z,14.18
2022-12-16T05:32:33.473Z,13.75
2022-12-16T05:35:18.976Z,12.93
2022-12-16T05:38:04.879Z,12.82
2022-12-16T05:40:50.409Z,15.35
2022-12-16T05:43:36.010Z,13.18
2022-12-16T05:46:21.271Z,12.90
2022-12-16T05:49:08.925Z,12.55
2022-12-16T05:51:54.359Z,13.30
2022-12-16T05:54:47.242Z,12.90
2022-12-16T05:57:32.647Z,12.40
2022-12-16T06:00:18.229Z,12.77
2022-12-16T06:03:05.778Z,12.35
2022-12-16T06:05:51.027Z,12.40
2022-12-16T06:08:36.377Z,13.88
2022-12-16T06:11:21.670Z,13.40
2022-12-16T06:14:09.045Z,12.98
2022-12-16T06:16:57.423Z,11.70
2022-12-16T06:19:42.538Z,12.02
2022-12-16T06:22:28.070Z,12.25
2022-12-16T06:25:16.364Z,12.57
2022-12-16T06:28:07.477Z,12.18
2022-12-16T06:30:52.825Z,13.70
2022-12-16T06:33:40.630Z,12.75
2022-12-16T06:36:28.016Z,13.45
2022-12-16T06:39:14.145Z,12.88
2022-12-16T06:41:59.621Z,13.45
2022-12-16T06:44:45.128Z,13.10
2022-12-16T06:47:30.549Z,11.93
2022-12-16T06:50:17.961Z,12.02
2022-12-16T06:53:03.509Z,12.88
2022-12-16T06:55:49.070Z,13.68
2022-12-16T06:58:34.512Z,12.27
2022-12-16T07:01:20.153Z,12.57
2022-12-16T07:04:05.636Z,11.45
2022-12-16T07:06:51.071Z,12.32
2022-12-16T07:09:36.523Z,13.02
2022-12-16T07:12:22.055Z,13.68
2022-12-16T07:15:27.306Z,12.48
2022-12-16T07:18:12.548Z,11.18
2022-12-16T07:20:58.037Z,12.25
2022-12-16T07:23:43.364Z,12.85
2022-12-16T07:26:28.963Z,11.55
2022-12-16T07:29:14.337Z,12.02
2022-12-16T07:31:59.915Z,11.90
2022-12-16T07:34:49.948Z,12.82
2022-12-16T07:37:35.649Z,11.57
2022-12-16T07:40:23.651Z,11.77
2022-12-16T07:43:09.139Z,12.82
2022-12-16T07:45:56.708Z,12.40
2022-12-16T07:48:44.709Z,11.48
2022-12-16T07:51:30.079Z,12.68
2022-12-16T07:54:15.492Z,11.70
2022-12-16T07:57:00.614Z,12.35
2022-12-16T07:59:45.944Z,11.98
2022-12-16T08:02:31.280Z,11.93
2022-12-16T08:05:19.111Z,11.55
2022-12-16T08:08:04.692Z,11.30
2022-12-16T08:10:52.583Z,12.30
2022-12-16T08:13:40.963Z,11.80
2022-12-16T08:16:26.652Z,12.07
2022-12-16T08:19:11.823Z,13.70
2022-12-16T08:21:57.254Z,11.73
2022-12-16T08:24:51.291Z,11.27
2022-12-16T08:27:41.244Z,11.82
2022-12-16T08:30:27.397Z,12.27
2022-12-16T08:33:18.863Z,12.52
2022-12-16T08:36:05.245Z,12.15
2022-12-16T08:39:00.865Z,12.30
2022-12-16T08:41:46.437Z,11.55
2022-12-16T08:44:31.931Z,12.30
2022-12-16T08:47:17.360Z,11.98
2022-12-16T08:50:02.989Z,11.45
2022-12-16T08:52:49.060Z,12.65
2022-12-16T08:55:34.489Z,11.68
2022-12-16T08:58:22.038Z,12.45
2022-12-16T09:01:08.205Z,12.05
2022-12-16T09:03:54.981Z,12.27
2022-12-16T09:06:41.968Z,13.23
2022-12-16T09:09:29.759Z,12.75
2022-12-16T09:12:25.842Z,14.13
2022-12-16T09:15:11.248Z,13.05
2022-12-16T09:17:59.094Z,12.52
2022-12-16T09:20:44.386Z,11.70
2022-12-16T09:23:32.840Z,13.52
2022-12-16T09:26:20.835Z,12.30
2022-12-16T09:29:08.531Z,13.80
2022-12-16T09:31:58.714Z,13.80
2022-12-16T09:37:29.432Z,13.63
2022-12-16T09:40:14.944Z,12.68
2022-12-16T09:43:12.020Z,12.23
2022-12-16T09:46:00.590Z,14.88
2022-12-16T09:48:58.024Z,14.20
2022-12-16T09:51:45.142Z,14.13
2022-12-16T09:54:34.618Z,13.75
2022-12-16T09:57:24.893Z,12.82
2022-12-16T10:00:20.755Z,13.23
2022-12-16T10:03:10.043Z,12.68
2022-12-16T10:06:32.403Z,13.40
2022-12-16T10:10:09.934Z,12.73
2022-12-16T10:13:10.220Z,12.35
2022-12-16T10:18:47.378Z,12.23
2022-12-16T10:21:41.944Z,12.40
2022-12-16T10:24:45.442Z,13.20
2022-12-16T10:27:38.733Z,13.32
2022-12-16T10:30:32.228Z,13.85
2022-12-16T10:33:21.044Z,14.25
2022-12-16T10:36:10.050Z,13.73
2022-12-16T10:39:03.666Z,13.70
2022-12-16T10:41:53.296Z,13.35
2022-12-16T10:45:10.917Z,14.07
2022-12-16T10:47:56.304Z,14.40
2022-12-16T10:50:41.727Z,13.65
2022-12-16T10:53:41.081Z,14.25
2022-12-16T10:56:44.250Z,14.40
2022-12-16T10:59:30.215Z,13.50
2022-12-16T11:02:21.369Z,13.88
2022-12-16T11:05:07.524Z,13.35
2022-12-16T11:07:58.563Z,12.60
2022-12-16T11:10:53.015Z,14.35
2022-12-16T11:13:44.500Z,13.43
2022-12-16T11:16:31.766Z,13.00
2022-12-16T11:19:17.462Z,14.15
2022-12-16T11:22:03.404Z,12.90
2022-12-16T11:24:49.383Z,13.65
2022-12-16T11:27:38.008Z,13.18
2022-12-16T11:30:35.491Z,12.68
2022-12-16T11:33:43.075Z,12.98
2022-12-16T11:36:42.884Z,13.13
2022-12-16T11:39:36.445Z,12.63
2022-12-16T11:42:24.810Z,13.23
2022-12-16T11:45:14.994Z,11.32
2022-12-16T11:48:12.807Z,12.48
2022-12-16T11:51:30.115Z,12.18
2022-12-16T11:54:24.570Z,11.02
2022-12-16T11:57:10.053Z,10.95
2022-12-16T12:00:23.731Z,12.23
2022-12-16T12:03:22.709Z,12.73
2022-12-16T12:06:23.269Z,12.10
2022-12-16T12:09:17.683Z,12.98
2022-12-16T12:12:10.910Z,12.18
2022-12-16T12:15:11.138Z,11.75
2022-12-16T12:20:53.463Z,12.50
2022-12-16T12:23:54.639Z,11.95
2022-12-16T12:26:48.112Z,12.93
2022-12-16T12:29:33.600Z,12.73
2022-12-16T12:32:27.731Z,12.57
2022-12-16T12:35:31.751Z,12.85
2022-12-16T12:38:21.270Z,13.10
2022-12-16T12:41:38.709Z,12.93
2022-12-16T12:44:48.915Z,13.43
2022-12-16T12:47:37.436Z,13.98
2022-12-16T12:50:39.889Z,13.18
2022-12-16T12:53:40.164Z,14.45
2022-12-16T12:59:23.835Z,13.48
2022-12-16T13:02:11.379Z,14.57
2022-12-16T13:04:58.046Z,14.02
2022-12-16T13:07:43.504Z,16.08
2022-12-16T13:10:43.760Z,15.20
2022-12-16T13:16:29.220Z,15.48
2022-12-16T13:19:50.180Z,16.17
2022-12-16T13:22:56.135Z,14.68
2022-12-16T13:26:08.784Z,15.07
2022-12-16T13:29:00.047Z,16.42
2022-12-16T13:31:53.327Z,16.48
2022-12-16T13:34:47.855Z,15.43
2022-12-16T13:37:44.646Z,16.48
2022-12-16T13:40:41.764Z,16.40
2022-12-16T13:44:05.081Z,17.92
2022-12-16T13:46:59.563Z,16.60
2022-12-16T13:49:59.761Z,16.75
2022-12-16T13:53:06.931Z,16.48
2022-12-16T13:56:10.201Z,16.58
2022-12-16T13:59:11.636Z,16.63
2022-12-16T14:02:00.472Z,15.82
2022-12-16T14:04:50.278Z,16.38
2022-12-16T14:07:36.480Z,16.00
2022-12-16T14:10:23.098Z,16.42
2022-12-16T14:13:15.376Z,16.75
2022-12-16T14:16:29.089Z,16.75
2022-12-16T14:19:37.362Z,17.23
2022-12-16T14:22:34.600Z,17.20
2022-12-16T14:25:38.360Z,17.23
2022-12-16T14:28:54.314Z,17.15
2022-12-16T14:31:57.597Z,17.33
2022-12-16T14:34:44.351Z,15.95
2022-12-16T14:37:38.485Z,17.23
2022-12-16T14:40:45.612Z,16.48
2022-12-16T14:43:33.867Z,16.48
2022-12-16T14:46:19.589Z,17.63
2022-12-16T14:49:11.351Z,16.35
2022-12-16T14:52:06.501Z,17.13
2022-12-16T14:55:00.575Z,14.90
2022-12-16T14:57:48.646Z,16.73
2022-12-16T15:00:42.046Z,16.45
2022-12-16T15:03:46.287Z,16.20
2022-12-16T15:06:46.175Z,16.50
2022-12-16T15:09:39.127Z,15.85
2022-12-16T15:12:27.138Z,15.55
2022-12-16T15:15:16.154Z,16.13
2022-12-16T15:18:16.997Z,15.98
2022-12-16T15:21:13.566Z,16.10
2022-12-16T15:24:02.115Z,15.25
2022-12-16T15:26:51.747Z,15.25
2022-12-16T15:30:02.957Z,17.05
2022-12-16T15:32:53.645Z,16.48
2022-12-16T15:35:46.239Z,16.02
2022-12-16T15:38:34.191Z,18.02
2022-12-16T15:41:25.579Z,17.02
2022-12-16T15:44:11.087Z,16.58
2022-12-16T15:46:56.472Z,15.63
2022-12-16T15:49:41.859Z,17.73
2022-12-16T15:52:57.203Z,17.33
2022-12-16T15:55:51.340Z,16.80
2022-12-16T15:58:45.012Z,17.10
2022-12-16T16:01:32.566Z,16.30
2022-12-16T16:04:31.647Z,18.15
2022-12-16T16:07:17.118Z,18.90
2022-12-16T16:10:02.549Z,17.70
2022-12-16T16:12:49.862Z,20.00
2022-12-16T16:15:35.260Z,19.50
2022-12-16T16:18:43.748Z,20.73
2022-12-16T16:21:28.868Z,18.67
2022-12-16T16:24:16.844Z,16.48
2022-12-16T16:27:02.409Z,18.25
2022-12-16T16:29:47.850Z,16.27
2022-12-16T16:32:33.380Z,16.73
2022-12-16T16:35:18.877Z,15.07
2022-12-16T16:38:04.268Z,15.30
2022-12-16T16:41:01.542Z,15.05
2022-12-16T16:43:47.906Z,13.55
2022-12-16T16:46:42.038Z,13.85
2022-12-16T16:49:56.151Z,15.68
2022-12-16T16:52:43.619Z,14.43
2022-12-16T16:55:42.645Z,14.48
2022-12-16T16:58:49.409Z,15.15
2022-12-16T17:01:40.000Z,15.52
2022-12-16T17:04:27.745Z,14.52
2022-12-16T17:07:13.310Z,15.02
2022-12-16T17:10:06.229Z,15.18
2022-12-16T17:12:51.832Z,15.32
2022-12-16T17:15:43.015Z,16.83
2022-12-16T17:18:29.029Z,16.73
2022-12-16T17:21:14.689Z,16.15
2022-12-16T17:24:00.112Z,16.45
2022-12-16T17:26:45.550Z,16.15
2022-12-16T17:29:43.884Z,16.70
2022-12-16T17:32:29.522Z,15.63
2022-12-16T17:35:15.165Z,16.52
2022-12-16T17:38:00.504Z,14.95
2022-12-16T17:40:45.932Z,15.80
2022-12-16T17:43:31.850Z,15.73
2022-12-16T17:46:26.818Z,16.90
2022-12-16T17:49:14.310Z,15.95
2022-12-16T17:52:00.303Z,16.70
2022-12-16T17:54:48.956Z,16.42
2022-12-16T17:57:34.249Z,15.20
2022-12-16T18:00:19.814Z,14.82
2022-12-16T18:03:05.723Z,15.73
2022-12-16T18:05:50.902Z,14.82
2022-12-16T18:08:36.378Z,14.50
2022-12-16T18:11:24.281Z,14.35
2022-12-16T18:14:12.685Z,15.45
2022-12-16T18:16:59.967Z,14.15
2022-12-16T18:19:45.409Z,15.90
2022-12-16T18:22:30.749Z,18.38
2022-12-16T18:25:16.324Z,16.15
2022-12-16T18:28:01.685Z,15.95
2022-12-16T18:30:47.204Z,16.92
2022-12-16T18:33:32.879Z,15.30
2022-12-16T18:36:18.606Z,16.30
2022-12-16T18:39:04.169Z,17.48
2022-12-16T18:41:49.581Z,19.00
2022-12-16T18:44:35.133Z,17.05
2022-12-16T18:47:23.260Z,14.82
2022-12-16T18:50:08.696Z,16.35
2022-12-16T18:52:56.076Z,16.55
2022-12-16T18:55:41.904Z,16.92
2022-12-16T18:58:49.660Z,15.73
2022-12-16T19:01:33.266Z,15.23
2022-12-16T19:04:18.701Z,16.20
2022-12-16T19:07:04.061Z,16.33
2022-12-16T19:09:49.464Z,17.00
2022-12-16T19:12:34.847Z,16.17
2022-12-16T19:15:20.322Z,17.48
2022-12-16T19:18:07.905Z,17.25
2022-12-16T19:20:55.332Z,16.65
2022-12-16T19:23:42.083Z,16.33
2022-12-16T19:26:27.744Z,17.88
2022-12-16T19:29:13.161Z,18.38
2022-12-16T19:31:58.679Z,18.50
2022-12-16T19:34:43.972Z,17.48
2022-12-16T19:37:29.498Z,19.25
2022-12-16T19:40:14.980Z,18.08
2022-12-16T19:43:00.350Z,16.70
2022-12-16T19:45:45.920Z,17.85
2022-12-16T19:48:31.376Z,27.95
2022-12-16T19:51:17.850Z,22.52
2022-12-16T19:54:04.126Z,20.35
2022-12-16T19:56:52.346Z,20.83
2022-12-16T19:59:40.563Z,18.50
2022-12-16T20:02:29.591Z,19.42
2022-12-16T20:05:17.692Z,17.50
2022-12-16T20:08:03.000Z,17.55
2022-12-16T20:10:48.510Z,16.13
2022-12-16T20:13:34.129Z,16.85
2022-12-16T20:16:22.580Z,16.50
2022-12-16T20:19:08.134Z,15.20
2022-12-16T20:21:56.377Z,17.67
2022-12-16T20:24:44.775Z,17.33
2022-12-16T20:27:32.225Z,16.13
2022-12-16T20:30:22.184Z,15.90
2022-12-16T20:33:07.833Z,15.15
2022-12-16T20:35:53.199Z,15.45
2022-12-16T20:38:43.710Z,14.13
2022-12-16T20:41:29.264Z,15.73
2022-12-16T20:44:16.673Z,16.60
2022-12-16T20:47:02.253Z,15.73
2022-12-16T20:49:47.776Z,16.80
2022-12-16T20:52:35.892Z,15.27
2022-12-16T20:55:21.498Z,17.38
2022-12-16T20:58:07.090Z,18.17
2022-12-16T21:00:52.599Z,16.00
2022-12-16T21:03:41.923Z,15.52
2022-12-16T21:06:27.756Z,19.35
2022-12-16T21:09:13.175Z,18.20
2022-12-16T21:12:00.955Z,16.27
2022-12-16T21:14:46.437Z,19.02
2022-12-16T21:17:34.115Z,16.45
2022-12-16T21:20:19.204Z,17.48
2022-12-16T21:23:04.565Z,16.38
2022-12-16T21:25:50.098Z,18.73
2022-12-16T21:28:35.707Z,17.08
2022-12-16T21:31:21.085Z,15.05
2022-12-16T21:34:11.343Z,16.77
2022-12-16T21:39:49.651Z,16.20
2022-12-16T21:42:38.615Z,15.80
2022-12-16T21:45:26.598Z,16.05
2022-12-16T21:48:14.507Z,16.48
2022-12-16T21:50:59.925Z,17.70
2022-12-16T21:53:45.871Z,17.55
2022-12-16T21:56:31.661Z,18.02
2022-12-16T21:59:17.263Z,16.30
2022-12-16T22:02:05.188Z,15.68
2022-12-16T22:04:53.509Z,16.88
2022-12-16T22:07:39.193Z,15.40
2022-12-16T22:10:27.301Z,16.90
2022-12-16T22:13:12.729Z,17.33
2022-12-16T22:16:02.480Z,16.17
2022-12-16T22:18:50.734Z,16.75
2022-12-16T22:21:39.305Z,15.98
2022-12-16T22:24:24.755Z,18.15
2022-12-16T22:27:12.814Z,17.45
2022-12-16T22:29:58.227Z,16.15
2022-12-16T22:32:43.807Z,17.80
2022-12-16T22:35:29.370Z,15.95
2022-12-16T22:38:14.397Z,17.77
2022-12-16T22:41:01.930Z,16.73
2022-12-16T22:43:51.092Z,17.80
2022-12-16T22:46:39.860Z,19.17
2022-12-16T22:49:25.158Z,16.33
2022-12-16T22:52:12.827Z,17.77
2022-12-16T22:55:02.013Z,17.73
2022-12-16T22:57:48.893Z,15.43
2022-12-16T23:00:37.825Z,14.90
2022-12-16T23:03:23.952Z,15.70
2022-12-16T23:06:09.570Z,15.10
2022-12-16T23:08:54.934Z,14.60
2022-12-16T23:11:44.848Z,14.88
2022-12-16T23:14:30.236Z,13.73
2022-12-16T23:17:15.650Z,15.75
2022-12-16T23:20:01.148Z,15.35
2022-12-16T23:22:53.655Z,15.27
2022-12-16T23:25:44.302Z,16.00
2022-12-16T23:28:29.775Z,16.13
2022-12-16T23:31:17.407Z,14.40
2022-12-16T23:34:02.665Z,14.90
2022-12-16T23:36:48.092Z,15.18
2022-12-16T23:39:35.690Z,14.40
2022-12-16T23:42:21.131Z,14.43
2022-12-16T23:45:06.569Z,15.50
2022-12-16T23:47:52.090Z,16.77
2022-12-16T23:50:37.509Z,16.50
2022-12-16T23:53:23.123Z,13.88
2022-12-16T23:56:08.560Z,15.38
2022-12-16T23:58:54.252Z,16.00
